Time;durP1;ratioP1;P1;durP2;ratioP2;P2;SDS_P1;SDS_P2;PMS_P1;PMS_P2;Temp;Humidity;BMP_temperature;BMP_pressure;BME280_temperature;BME280_humidity;BME280_pressure;Samples;Min_cycle;Max_cycle;Signal;HPM_P1;HPM_P2
2023/01/13 00:02:22;;;;;;;;;;;9.00;99.90;;;;;;5114067;28;19948;-69
2023/01/13 00:04:50;;;;;;;;;;;9.00;99.90;;;;;;5105480;28;19969;-70
2023/01/13 00:07:17;;;;;;;;;;;9.00;99.90;;;;;;5104568;28;19987;-70
2023/01/13 00:09:44;;;;;;;;;;;9.10;99.90;;;;;;5105507;28;19951;-70
2023/01/13 00:12:10;;;;;;;;;;;9.00;99.90;;;;;;5105034;28;19947;-70
2023/01/13 00:14:37;;;;;;;;;;;9.00;99.90;;;;;;5101642;28;19951;-69
2023/01/13 00:17:04;;;;;;;;;;;9.00;99.90;;;;;;5103932;28;19920;-69
2023/01/13 00:19:30;;;;;;;;;;;9.00;99.90;;;;;;5104311;28;19948;-70
2023/01/13 00:21:58;;;;;;;;;;;9.00;99.90;;;;;;5105133;28;19991;-70
2023/01/13 00:24:25;;;;;;;;;;;9.00;99.90;;;;;;5085023;28;19984;-70
2023/01/13 00:26:52;;;;;;;;;;;9.10;99.90;;;;;;5083903;28;20180;-70
2023/01/13 00:29:19;;;;;;;;;;;9.00;99.90;;;;;;5084495;28;19920;-71
2023/01/13 00:31:45;;;;;;;;;;;9.10;99.90;;;;;;5095132;28;19986;-70
2023/01/13 00:34:12;;;;;;;;;;;9.10;99.90;;;;;;5104600;28;20223;-71
2023/01/13 00:36:39;;;;;;;;;;;9.10;99.90;;;;;;5104184;28;19920;-70
2023/01/13 00:39:07;;;;;;;;;;;9.10;99.90;;;;;;5104911;28;19955;-70
2023/01/13 00:44:14;;;;;;;;;;;9.10;99.90;;;;;;5103615;28;20104;-70
2023/01/13 00:46:40;;;;;;;;;;;9.10;99.90;;;;;;5103875;28;19927;-70
2023/01/13 00:49:07;;;;;;;;;;;9.10;99.90;;;;;;5104348;28;19927;-70
2023/01/13 00:51:34;;;;;;;;;;;9.20;99.90;;;;;;5104574;28;19920;-69
2023/01/13 00:54:01;;;;;;;;;;;9.10;99.90;;;;;;5104652;28;19920;-70
2023/01/13 00:56:29;;;;;;;;;;;9.10;99.90;;;;;;5103323;28;19952;-70
2023/01/13 00:58:57;;;;;;;;;;;9.10;99.90;;;;;;5096301;28;20252;-70
2023/01/13 01:01:24;;;;;;;;;;;9.10;99.90;;;;;;5089599;28;20111;-70
2023/01/13 01:03:52;;;;;;;;;;;9.20;99.90;;;;;;5104475;28;20162;-70
2023/01/13 01:06:20;;;;;;;;;;;9.20;99.90;;;;;;5103557;28;20171;-70
2023/01/13 01:08:47;;;;;;;;;;;9.20;99.90;;;;;;5104470;28;20007;-70
2023/01/13 01:11:15;;;;;;;;;;;9.20;99.90;;;;;;5104376;28;19970;-70
2023/01/13 01:13:43;;;;;;;;;;;9.20;99.90;;;;;;5103960;28;19920;-70
2023/01/13 01:16:10;;;;;;;;;;;9.20;99.90;;;;;;5103264;28;19963;-70
2023/01/13 01:18:38;;;;;;;;;;;9.20;99.90;;;;;;5104435;28;19955;-70
2023/01/13 01:21:05;;;;;;;;;;;9.20;99.90;;;;;;5104209;28;19983;-70
2023/01/13 01:23:32;;;;;;;;;;;9.20;99.90;;;;;;5104203;28;19983;-70
2023/01/13 01:25:59;;;;;;;;;;;9.20;99.90;;;;;;5103402;28;19942;-70
2023/01/13 01:28:26;;;;;;;;;;;9.20;99.90;;;;;;5103716;28;19983;-70
2023/01/13 01:30:57;;;;;;;;;;;9.20;99.90;;;;;;5104279;28;19959;-70
2023/01/13 01:33:24;;;;;;;;;;;9.20;99.90;;;;;;5103838;28;19920;-70
2023/01/13 01:35:50;;;;;;;;;;;9.20;99.90;;;;;;5103551;28;19947;-70
2023/01/13 01:38:17;;;;;;;;;;;9.20;99.90;;;;;;5103718;28;19974;-70
2023/01/13 01:40:44;;;;;;;;;;;9.20;99.90;;;;;;5104086;28;20172;-70
2023/01/13 01:45:56;;;;;;;;;;;9.20;99.90;;;;;;5094308;28;19951;-70
2023/01/13 01:48:23;;;;;;;;;;;9.20;99.90;;;;;;5101064;28;19920;-70
2023/01/13 01:50:51;;;;;;;;;;;9.20;99.90;;;;;;5098648;28;19920;-70
2023/01/13 01:53:19;;;;;;;;;;;9.20;99.90;;;;;;5083427;28;19927;-70
2023/01/13 01:55:46;;;;;;;;;;;9.20;99.90;;;;;;5083118;28;19956;-70
2023/01/13 01:58:15;;;;;;;;;;;9.20;99.90;;;;;;5086951;28;20145;-70
2023/01/13 02:00:42;;;;;;;;;;;9.10;99.90;;;;;;5123826;28;19986;-70
2023/01/13 02:03:10;;;;;;;;;;;9.20;99.90;;;;;;5024606;28;19928;-70
2023/01/13 02:05:37;;;;;;;;;;;9.20;99.90;;;;;;5000665;28;19921;-70
2023/01/13 02:08:05;;;;;;;;;;;9.20;99.90;;;;;;5002605;28;20206;-70
2023/01/13 02:10:31;;;;;;;;;;;9.20;99.90;;;;;;5004525;28;19928;-70
2023/01/13 02:12:59;;;;;;;;;;;9.20;99.90;;;;;;5003948;28;19921;-70
2023/01/13 02:15:28;;;;;;;;;;;9.20;99.90;;;;;;5004041;28;19925;-70
2023/01/13 02:18:06;;;;;;;;;;;9.20;99.90;;;;;;5003863;28;19922;-69
2023/01/13 02:20:44;;;;;;;;;;;9.20;99.90;;;;;;5004270;28;19957;-70
2023/01/13 02:26:22;;;;;;;;;;;9.20;99.90;;;;;;5106579;28;19938;-70
2023/01/13 02:31:47;;;;;;;;;;;9.20;99.90;;;;;;5107202;28;19974;-70
2023/01/13 02:34:17;;;;;;;;;;;9.20;99.90;;;;;;5107276;28;19955;-70
2023/01/13 02:36:48;;;;;;;;;;;9.20;99.90;;;;;;5106206;28;19920;-70
2023/01/13 02:39:18;;;;;;;;;;;9.20;99.90;;;;;;5107304;28;19920;-70
2023/01/13 02:44:40;;;;;;;;;;;9.20;99.90;;;;;;5106891;28;19977;-70
2023/01/13 02:47:10;;;;;;;;;;;9.30;99.90;;;;;;5106589;28;19987;-70
2023/01/13 02:49:39;;;;;;;;;;;9.30;99.90;;;;;;5104391;28;19922;-70
2023/01/13 02:52:09;;;;;;;;;;;9.30;99.90;;;;;;5105912;28;20234;-70
2023/01/13 02:54:37;;;;;;;;;;;9.30;99.90;;;;;;5105934;28;20115;-70
2023/01/13 02:57:05;;;;;;;;;;;9.30;99.90;;;;;;5105982;28;19927;-71
2023/01/13 02:59:32;;;;;;;;;;;9.30;99.90;;;;;;5106125;28;19979;-70
2023/01/13 03:01:59;;;;;;;;;;;9.30;99.90;;;;;;5106989;28;19930;-70
2023/01/13 03:04:44;;;;;;;;;;;9.20;99.90;;;;;;5106383;28;19920;-70
2023/01/13 03:07:13;;;;;;;;;;;9.20;99.90;;;;;;5105713;28;20335;-70
2023/01/13 03:09:43;;;;;;;;;;;9.20;99.90;;;;;;5106096;28;20235;-70
2023/01/13 03:12:13;;;;;;;;;;;9.20;99.90;;;;;;5106261;28;19920;-70
2023/01/13 03:14:41;;;;;;;;;;;9.20;99.90;;;;;;5105940;28;19988;-70
2023/01/13 03:17:16;;;;;;;;;;;9.20;99.90;;;;;;5105189;28;19920;-70
2023/01/13 03:19:44;;;;;;;;;;;9.20;99.90;;;;;;5105666;28;20204;-70
2023/01/13 03:22:17;;;;;;;;;;;9.20;99.90;;;;;;5106013;28;19920;-70
2023/01/13 03:24:46;;;;;;;;;;;9.20;99.90;;;;;;5106032;28;20268;-70
2023/01/13 03:27:15;;;;;;;;;;;9.10;99.90;;;;;;5105495;28;19960;-70
2023/01/13 03:29:46;;;;;;;;;;;9.10;99.90;;;;;;5106011;28;20178;-70
2023/01/13 03:32:15;;;;;;;;;;;9.20;99.90;;;;;;5106186;28;19986;-70
2023/01/13 03:34:44;;;;;;;;;;;9.20;99.90;;;;;;5105338;28;19924;-70
2023/01/13 03:37:13;;;;;;;;;;;9.10;99.90;;;;;;5105596;28;19987;-70
2023/01/13 03:39:43;;;;;;;;;;;9.20;99.90;;;;;;5106100;28;19951;-70
2023/01/13 03:42:11;;;;;;;;;;;9.20;99.90;;;;;;5105906;28;19951;-70
2023/01/13 03:44:39;;;;;;;;;;;9.10;99.90;;;;;;5105992;28;19924;-74
2023/01/13 03:47:10;;;;;;;;;;;9.20;99.90;;;;;;5105158;28;19916;-69
2023/01/13 03:49:38;;;;;;;;;;;9.20;99.90;;;;;;5105605;28;19951;-70
2023/01/13 03:52:07;;;;;;;;;;;9.20;99.90;;;;;;5105687;28;20085;-70
2023/01/13 03:54:37;;;;;;;;;;;9.20;99.90;;;;;;5105430;28;19926;-70
2023/01/13 03:57:06;;;;;;;;;;;9.20;99.90;;;;;;5104591;28;20255;-70
2023/01/13 03:59:36;;;;;;;;;;;9.20;99.90;;;;;;5105612;28;19920;-70
2023/01/13 04:02:04;;;;;;;;;;;9.20;99.90;;;;;;5105511;28;19984;-70
2023/01/13 04:04:33;;;;;;;;;;;9.20;99.90;;;;;;5105332;28;20250;-69
2023/01/13 04:07:06;;;;;;;;;;;9.20;99.90;;;;;;5104800;28;19987;-70
2023/01/13 04:09:37;;;;;;;;;;;9.20;99.90;;;;;;5105736;28;19963;-70
2023/01/13 04:12:08;;;;;;;;;;;9.20;99.90;;;;;;5105336;28;19956;-70
2023/01/13 04:14:34;;;;;;;;;;;9.20;99.90;;;;;;5105486;28;19955;-70
2023/01/13 04:17:01;;;;;;;;;;;9.20;99.90;;;;;;5104657;28;19984;-70
2023/01/13 04:19:28;;;;;;;;;;;9.10;99.90;;;;;;5105396;28;20119;-70
2023/01/13 04:21:54;;;;;;;;;;;9.10;99.90;;;;;;5105321;28;19927;-70
2023/01/13 04:24:21;;;;;;;;;;;9.10;99.90;;;;;;5105375;28;20045;-70
2023/01/13 04:26:49;;;;;;;;;;;9.20;99.90;;;;;;5104180;28;20152;-70
2023/01/13 04:29:16;;;;;;;;;;;9.20;99.90;;;;;;5104614;28;19966;-70
2023/01/13 04:31:42;;;;;;;;;;;9.20;99.90;;;;;;5104712;28;19979;-70
2023/01/13 04:34:10;;;;;;;;;;;9.20;99.90;;;;;;5104946;28;19978;-70
2023/01/13 04:36:36;;;;;;;;;;;9.20;99.90;;;;;;5103961;28;19979;-70
2023/01/13 04:39:03;;;;;;;;;;;9.20;99.90;;;;;;5104937;28;19983;-70
2023/01/13 04:41:56;;;;;;;;;;;9.20;99.90;;;;;;5104757;28;19920;-69
2023/01/13 04:44:19;;;;;;;;;;;9.20;99.90;;;;;;5104227;28;19962;-69
2023/01/13 04:46:46;;;;;;;;;;;9.30;99.90;;;;;;5104017;28;19920;-70
2023/01/13 04:49:12;;;;;;;;;;;9.30;99.90;;;;;;5104350;28;19926;-70
2023/01/13 04:51:39;;;;;;;;;;;9.30;99.90;;;;;;5104525;28;19991;-70
2023/01/13 04:54:06;;;;;;;;;;;9.30;99.90;;;;;;5104634;28;19975;-70
2023/01/13 04:56:32;;;;;;;;;;;9.30;99.90;;;;;;5103683;28;19952;-70
2023/01/13 04:58:59;;;;;;;;;;;9.30;99.90;;;;;;5103822;28;19943;-70
2023/01/13 05:01:27;;;;;;;;;;;9.30;99.90;;;;;;5100429;28;19944;-70
2023/01/13 05:03:54;;;;;;;;;;;9.30;99.90;;;;;;5083937;28;19920;-69
2023/01/13 05:06:20;;;;;;;;;;;9.30;99.90;;;;;;5083350;28;19995;-70
2023/01/13 05:08:47;;;;;;;;;;;9.30;99.90;;;;;;5084178;28;20162;-70
2023/01/13 05:19:23;;;;;;;;;;;9.30;99.90;;;;;;5083987;28;19927;-70
2023/01/13 05:27:18;;;;;;;;;;;9.30;99.90;;;;;;5103259;28;19923;-70
2023/01/13 05:29:45;;;;;;;;;;;9.30;99.90;;;;;;5104138;28;19947;-69
2023/01/13 05:32:13;;;;;;;;;;;9.40;99.90;;;;;;5103497;28;20251;-69
2023/01/13 05:34:40;;;;;;;;;;;9.30;99.90;;;;;;5088535;28;20020;-70
2023/01/13 05:37:07;;;;;;;;;;;9.30;99.90;;;;;;5086449;28;19959;-69
2023/01/13 05:43:18;;;;;;;;;;;9.40;99.90;;;;;;5099994;28;19920;-69
2023/01/13 05:45:04;;;;;;;;;;;9.40;99.90;;;;;;5103094;28;19976;-69
2023/01/13 05:47:32;;;;;;;;;;;9.40;99.90;;;;;;5102044;28;19962;-69
2023/01/13 05:49:59;;;;;;;;;;;9.40;99.90;;;;;;5103832;28;19983;-69
2023/01/13 05:52:26;;;;;;;;;;;9.40;99.90;;;;;;5083654;28;20264;-69
2023/01/13 05:54:52;;;;;;;;;;;9.40;99.90;;;;;;5083367;28;19992;-69
2023/01/13 05:57:19;;;;;;;;;;;9.40;99.90;;;;;;5097935;28;19983;-69
2023/01/13 05:59:45;;;;;;;;;;;9.40;99.90;;;;;;5103620;28;19970;-69
2023/01/13 06:02:12;;;;;;;;;;;9.40;99.90;;;;;;5103303;28;19959;-69
2023/01/13 06:04:40;;;;;;;;;;;9.40;99.90;;;;;;5103587;28;19951;-69
2023/01/13 06:07:08;;;;;;;;;;;9.40;99.90;;;;;;5102026;28;19991;-69
2023/01/13 06:09:34;;;;;;;;;;;9.40;99.90;;;;;;5103674;28;19927;-69
2023/01/13 06:12:01;;;;;;;;;;;9.40;99.90;;;;;;5103347;28;20057;-69
2023/01/13 06:14:38;;;;;;;;;;;9.40;99.90;;;;;;5102223;28;19983;-69
2023/01/13 06:17:06;;;;;;;;;;;9.40;99.90;;;;;;5080742;28;20223;-69
2023/01/13 06:19:32;;;;;;;;;;;9.50;99.90;;;;;;5087278;28;20172;-69
2023/01/13 06:22:03;;;;;;;;;;;9.50;99.90;;;;;;5102468;28;19962;-70
2023/01/13 06:24:30;;;;;;;;;;;9.40;99.90;;;;;;5103055;28;20204;-69
2023/01/13 06:26:56;;;;;;;;;;;9.40;99.90;;;;;;5102637;28;19991;-68
2023/01/13 06:29:23;;;;;;;;;;;9.40;99.90;;;;;;5103178;28;19952;-69
2023/01/13 06:31:50;;;;;;;;;;;9.40;99.90;;;;;;5102763;28;19966;-69
2023/01/13 06:34:16;;;;;;;;;;;9.40;99.90;;;;;;5103465;28;19991;-69
2023/01/13 06:36:45;;;;;;;;;;;9.40;99.90;;;;;;5103010;28;19948;-69
2023/01/13 06:39:15;;;;;;;;;;;9.40;99.90;;;;;;5103362;28;20203;-69
2023/01/13 06:44:26;;;;;;;;;;;9.50;99.90;;;;;;5103079;28;19931;-69
2023/01/13 06:46:52;;;;;;;;;;;9.50;99.90;;;;;;5102505;28;19987;-69
2023/01/13 06:49:19;;;;;;;;;;;9.50;99.90;;;;;;5103381;28;19955;-69
2023/01/13 06:51:45;;;;;;;;;;;9.40;99.90;;;;;;5089175;28;19920;-69
2023/01/13 06:54:13;;;;;;;;;;;9.50;99.90;;;;;;5084307;28;20162;-69
2023/01/13 06:56:40;;;;;;;;;;;9.40;99.90;;;;;;5098396;28;20298;-69
2023/01/13 06:59:07;;;;;;;;;;;9.40;99.90;;;;;;5106879;28;19986;-68
2023/01/13 07:01:33;;;;;;;;;;;9.40;99.90;;;;;;5106022;28;19951;-68
2023/01/13 07:04:01;;;;;;;;;;;9.50;99.90;;;;;;5106854;28;19986;-68
2023/01/13 07:06:28;;;;;;;;;;;9.50;99.90;;;;;;5105731;28;19966;-69
2023/01/13 07:08:54;;;;;;;;;;;9.50;99.90;;;;;;5095762;28;19952;-68
2023/01/13 07:11:22;;;;;;;;;;;9.50;99.90;;;;;;5086121;28;19921;-68
2023/01/13 07:16:33;;;;;;;;;;;9.50;99.90;;;;;;5105720;28;19923;-68
2023/01/13 07:18:59;;;;;;;;;;;9.50;99.90;;;;;;5102560;28;20179;-68
2023/01/13 07:21:26;;;;;;;;;;;9.50;99.90;;;;;;5086168;28;20113;-68
2023/01/13 07:23:53;;;;;;;;;;;9.50;99.90;;;;;;5085634;28;19984;-68
2023/01/13 07:26:19;;;;;;;;;;;9.50;99.90;;;;;;5099793;28;20282;-68
2023/01/13 07:28:47;;;;;;;;;;;9.50;99.90;;;;;;5105593;28;19942;-68
2023/01/13 07:31:15;;;;;;;;;;;9.50;99.90;;;;;;5103923;28;20103;-68
2023/01/13 07:33:42;;;;;;;;;;;9.50;99.90;;;;;;5105854;28;19920;-68
2023/01/13 07:36:09;;;;;;;;;;;9.50;99.90;;;;;;5105368;28;19979;-69
2023/01/13 07:38:37;;;;;;;;;;;9.50;99.90;;;;;;5085509;28;19947;-68
2023/01/13 07:43:30;;;;;;;;;;;9.50;99.90;;;;;;5099197;28;19991;-70
2023/01/13 07:43:51;;;;;;;;;;;9.50;99.90;;;;;;5089553;28;20000;-68
2023/01/13 07:46:18;;;;;;;;;;;9.50;99.90;;;;;;5085121;28;19959;-68
2023/01/13 07:48:46;;;;;;;;;;;9.50;99.90;;;;;;5091472;28;19947;-68
2023/01/13 07:51:13;;;;;;;;;;;9.50;99.90;;;;;;5105310;28;20155;-68
2023/01/13 07:53:39;;;;;;;;;;;9.60;99.90;;;;;;5105589;28;19975;-69
2023/01/13 07:56:06;;;;;;;;;;;9.50;99.90;;;;;;5093706;28;19988;-68
2023/01/13 07:58:33;;;;;;;;;;;9.40;99.90;;;;;;5085379;28;19921;-68
2023/01/13 08:01:06;;;;;;;;;;;9.40;99.90;;;;;;5094112;28;19983;-68
2023/01/13 08:03:33;;;;;;;;;;;9.40;99.90;;;;;;5105008;28;19936;-68
2023/01/13 08:06:00;;;;;;;;;;;9.40;99.90;;;;;;5101939;28;20187;-69
2023/01/13 08:08:27;;;;;;;;;;;9.40;99.90;;;;;;5092922;28;19926;-68
2023/01/13 08:10:53;;;;;;;;;;;9.40;99.90;;;;;;5104684;28;19988;-68
2023/01/13 08:13:20;;;;;;;;;;;9.30;99.90;;;;;;5088942;28;19979;-68
2023/01/13 08:15:47;;;;;;;;;;;9.30;99.90;;;;;;5084099;28;20212;-68
2023/01/13 08:18:18;;;;;;;;;;;9.20;99.90;;;;;;5087135;28;20108;-68
2023/01/13 08:20:45;;;;;;;;;;;9.30;99.90;;;;;;5090251;28;19963;-69
2023/01/13 08:23:12;;;;;;;;;;;9.20;99.90;;;;;;5084822;28;19927;-68
2023/01/13 08:25:38;;;;;;;;;;;9.20;99.90;;;;;;5083879;28;19983;-68
2023/01/13 08:28:05;;;;;;;;;;;9.20;99.90;;;;;;5084141;28;19920;-68
2023/01/13 08:30:31;;;;;;;;;;;9.20;99.90;;;;;;5088791;28;19987;-68
2023/01/13 08:32:58;;;;;;;;;;;9.20;99.90;;;;;;5084452;28;20004;-68
2023/01/13 08:35:26;;;;;;;;;;;9.10;99.90;;;;;;5084204;28;19953;-68
2023/01/13 08:37:53;;;;;;;;;;;9.10;99.90;;;;;;5083621;28;20228;-68
2023/01/13 08:40:21;;;;;;;;;;;9.10;99.90;;;;;;5092996;28;19947;-68
2023/01/13 08:42:47;;;;;;;;;;;9.20;99.90;;;;;;5093706;28;20143;-68
2023/01/13 08:45:14;;;;;;;;;;;9.20;99.90;;;;;;5083858;28;19921;-68
2023/01/13 08:47:41;;;;;;;;;;;9.20;99.90;;;;;;5085985;28;19920;-68
2023/01/13 08:50:08;;;;;;;;;;;9.10;99.90;;;;;;5104329;28;19983;-68
2023/01/13 08:52:36;;;;;;;;;;;9.10;99.90;;;;;;5085753;28;19942;-68
2023/01/13 08:55:03;;;;;;;;;;;9.10;99.90;;;;;;5098584;28;19920;-68
2023/01/13 08:57:29;;;;;;;;;;;9.10;99.90;;;;;;5102973;28;19920;-68
2023/01/13 08:59:56;;;;;;;;;;;9.10;99.90;;;;;;5097596;28;19920;-68
2023/01/13 09:02:23;;;;;;;;;;;9.10;99.90;;;;;;5082688;28;19952;-68
2023/01/13 09:04:50;;;;;;;;;;;9.20;99.90;;;;;;5083814;28;19927;-68
2023/01/13 09:07:17;;;;;;;;;;;9.20;99.90;;;;;;5095230;28;19921;-68
2023/01/13 09:09:45;;;;;;;;;;;9.20;99.90;;;;;;5083695;28;20187;-67
2023/01/13 09:14:56;;;;;;;;;;;9.30;99.90;;;;;;5083637;28;19974;-68
2023/01/13 09:17:23;;;;;;;;;;;9.30;99.90;;;;;;5098053;28;19992;-68
2023/01/13 09:19:50;;;;;;;;;;;9.30;99.90;;;;;;5083002;28;19920;-68
2023/01/13 09:22:17;;;;;;;;;;;9.20;99.90;;;;;;5082639;28;20115;-68
2023/01/13 09:24:46;;;;;;;;;;;9.20;99.90;;;;;;5084037;28;19926;-68
2023/01/13 09:27:13;;;;;;;;;;;9.20;99.90;;;;;;5083158;28;19920;-68
2023/01/13 09:29:40;;;;;;;;;;;9.10;99.90;;;;;;5086634;28;19948;-68
2023/01/13 09:32:07;;;;;;;;;;;8.90;99.90;;;;;;5083363;28;19921;-68
2023/01/13 09:37:23;;;;;;;;;;;8.50;99.90;;;;;;5080385;28;19931;-68
2023/01/13 09:39:51;;;;;;;;;;;8.30;99.90;;;;;;5083211;28;19920;-68
2023/01/13 09:45:08;;;;;;;;;;;8.10;99.90;;;;;;5089377;28;19978;-68
2023/01/13 09:47:39;;;;;;;;;;;7.90;99.90;;;;;;5086258;28;19971;-68
2023/01/13 09:50:15;;;;;;;;;;;7.90;99.90;;;;;;5087014;28;19997;-68
2023/01/13 09:52:42;;;;;;;;;;;7.80;99.90;;;;;;5091752;28;19986;-68
2023/01/13 09:55:11;;;;;;;;;;;7.80;99.90;;;;;;5102842;28;19962;-68
2023/01/13 09:57:38;;;;;;;;;;;7.80;99.90;;;;;;5102599;28;19926;-68
2023/01/13 10:00:10;;;;;;;;;;;7.70;99.90;;;;;;5091888;28;19934;-68
2023/01/13 10:02:39;;;;;;;;;;;7.70;99.90;;;;;;5089587;28;19920;-68
2023/01/13 10:05:10;;;;;;;;;;;7.60;99.90;;;;;;5097285;28;19974;-68
2023/01/13 10:07:39;;;;;;;;;;;7.60;99.90;;;;;;5102362;28;19987;-68
2023/01/13 10:10:10;;;;;;;;;;;7.50;99.90;;;;;;5096822;28;19921;-67
2023/01/13 10:15:25;;;;;;;;;;;7.40;99.90;;;;;;5103410;28;20019;-67
2023/01/13 10:17:55;;;;;;;;;;;7.40;99.90;;;;;;5080426;28;19920;-67
2023/01/13 10:20:23;;;;;;;;;;;7.40;99.90;;;;;;5083551;28;19958;-68
2023/01/13 10:22:55;;;;;;;;;;;7.40;99.90;;;;;;5097091;28;19920;-67
2023/01/13 10:25:27;;;;;;;;;;;7.30;99.90;;;;;;5085985;28;19987;-67
2023/01/13 10:27:56;;;;;;;;;;;7.30;99.90;;;;;;5083499;28;19927;-68
2023/01/13 10:30:26;;;;;;;;;;;7.30;99.90;;;;;;5106340;28;19965;-68
2023/01/13 10:32:54;;;;;;;;;;;7.30;99.90;;;;;;5107128;28;20262;-67
2023/01/13 10:35:36;;;;;;;;;;;7.30;99.90;;;;;;5093467;28;19978;-68
2023/01/13 10:38:02;;;;;;;;;;;7.30;99.90;;;;;;5105811;28;19920;-68
2023/01/13 10:40:29;;;;;;;;;;;7.40;99.90;;;;;;5106977;28;19947;-68
2023/01/13 10:43:05;;;;;;;;;;;7.40;99.90;;;;;;5106051;28;19944;-68
2023/01/13 10:45:32;;;;;;;;;;;7.40;99.90;;;;;;5104380;28;19920;-68
2023/01/13 10:48:05;;;;;;;;;;;7.40;99.90;;;;;;5105611;28;19960;-68
2023/01/13 10:50:34;;;;;;;;;;;7.40;99.90;;;;;;5086785;28;20081;-68
2023/01/13 10:53:01;;;;;;;;;;;7.50;99.90;;;;;;5101730;28;19963;-68
2023/01/13 10:55:30;;;;;;;;;;;7.50;99.90;;;;;;5087955;28;19984;-68
2023/01/13 10:57:57;;;;;;;;;;;7.50;99.90;;;;;;5101345;28;19927;-68
2023/01/13 11:00:29;;;;;;;;;;;7.60;99.90;;;;;;5091812;28;19983;-68
2023/01/13 11:03:12;;;;;;;;;;;7.60;99.90;;;;;;5102096;28;19980;-68
2023/01/13 11:05:39;;;;;;;;;;;7.70;99.90;;;;;;5099532;28;19920;-68
2023/01/13 11:08:16;;;;;;;;;;;7.80;99.90;;;;;;5104805;28;19920;-68
2023/01/13 11:10:45;;;;;;;;;;;7.80;99.90;;;;;;5090719;28;20112;-68
2023/01/13 11:13:14;;;;;;;;;;;7.90;99.90;;;;;;5085991;28;19927;-68
2023/01/13 11:15:44;;;;;;;;;;;8.00;99.90;;;;;;5084640;28;19926;-68
2023/01/13 11:18:15;;;;;;;;;;;8.10;99.90;;;;;;5095354;28;19982;-68
2023/01/13 11:20:42;;;;;;;;;;;8.10;99.90;;;;;;5101178;28;19971;-67
2023/01/13 11:23:13;;;;;;;;;;;8.10;99.90;;;;;;5105925;28;19928;-68
2023/01/13 11:25:41;;;;;;;;;;;8.10;99.90;;;;;;5102756;28;20143;-68
2023/01/13 11:28:16;;;;;;;;;;;8.10;99.90;;;;;;5099161;28;19920;-68
2023/01/13 11:30:47;;;;;;;;;;;8.00;99.90;;;;;;5103855;28;19988;-68
2023/01/13 11:33:29;;;;;;;;;;;8.10;99.90;;;;;;5096951;28;19927;-68
2023/01/13 11:36:01;;;;;;;;;;;8.00;99.90;;;;;;5097962;28;19920;-68
2023/01/13 11:38:30;;;;;;;;;;;8.00;99.90;;;;;;5093209;28;19952;-68
2023/01/13 11:41:01;;;;;;;;;;;8.00;99.90;;;;;;5085410;28;19927;-68
2023/01/13 11:43:32;;;;;;;;;;;8.00;99.90;;;;;;5103355;28;19920;-68
2023/01/13 11:46:01;;;;;;;;;;;8.00;99.90;;;;;;5103943;28;19966;-68
2023/01/13 11:48:29;;;;;;;;;;;8.00;99.90;;;;;;5105184;28;19959;-68
2023/01/13 11:50:59;;;;;;;;;;;8.00;99.90;;;;;;5094145;28;19927;-68
2023/01/13 11:53:33;;;;;;;;;;;8.00;99.90;;;;;;5084964;28;19920;-68
2023/01/13 11:56:06;;;;;;;;;;;8.00;99.90;;;;;;5089147;28;19983;-68
2023/01/13 11:58:39;;;;;;;;;;;8.00;99.90;;;;;;5095047;28;19983;-68
2023/01/13 12:01:16;;;;;;;;;;;7.90;99.90;;;;;;5086349;28;19958;-68
2023/01/13 12:03:43;;;;;;;;;;;7.90;99.90;;;;;;5085163;28;19920;-68
2023/01/13 12:06:29;;;;;;;;;;;7.90;99.90;;;;;;5083783;28;19920;-68
2023/01/13 12:09:03;;;;;;;;;;;7.90;99.90;;;;;;5098871;28;20175;-68
2023/01/13 12:12:17;;;;;;;;;;;7.90;99.90;;;;;;5102423;28;20158;-68
2023/01/13 12:14:23;;;;;;;;;;;7.90;99.90;;;;;;5093832;28;19920;-68
2023/01/13 12:16:51;;;;;;;;;;;7.90;99.90;;;;;;5094195;28;19979;-68
2023/01/13 12:19:26;;;;;;;;;;;7.90;99.90;;;;;;5086288;28;19942;-68
2023/01/13 12:21:59;;;;;;;;;;;7.90;99.90;;;;;;5105263;28;20155;-68
2023/01/13 12:24:28;;;;;;;;;;;7.90;99.90;;;;;;5103523;28;19962;-69
2023/01/13 12:26:57;;;;;;;;;;;7.90;99.90;;;;;;5098235;28;20144;-70
2023/01/13 12:29:28;;;;;;;;;;;7.90;99.90;;;;;;5105021;28;19979;-68
2023/01/13 12:31:57;;;;;;;;;;;8.00;99.90;;;;;;5104755;28;20272;-68
2023/01/13 12:34:28;;;;;;;;;;;8.00;99.90;;;;;;5091596;28;19979;-68
2023/01/13 12:36:59;;;;;;;;;;;8.00;99.90;;;;;;5084054;28;19924;-68
2023/01/13 12:39:29;;;;;;;;;;;8.00;99.90;;;;;;5102251;28;19935;-68
2023/01/13 12:45:01;;;;;;;;;;;8.00;99.90;;;;;;5081741;28;19924;-68
2023/01/13 12:47:36;;;;;;;;;;;8.00;99.90;;;;;;5089824;28;19920;-68
2023/01/13 12:50:17;;;;;;;;;;;7.90;99.90;;;;;;5092465;28;19920;-68
2023/01/13 12:52:44;;;;;;;;;;;7.90;99.90;;;;;;5103219;28;20123;-68
2023/01/13 12:55:15;;;;;;;;;;;8.00;99.90;;;;;;5102439;28;19963;-68
2023/01/13 12:57:56;;;;;;;;;;;8.00;99.90;;;;;;5083683;28;19952;-68
2023/01/13 13:00:23;;;;;;;;;;;8.00;99.90;;;;;;5087702;28;20279;-68
2023/01/13 13:03:06;;;;;;;;;;;7.90;99.90;;;;;;5088545;28;19983;-68
2023/01/13 13:05:41;;;;;;;;;;;8.00;99.90;;;;;;5081591;28;19921;-68
2023/01/13 13:08:14;;;;;;;;;;;8.00;99.90;;;;;;5095252;28;19926;-69
2023/01/13 13:10:45;;;;;;;;;;;8.00;99.90;;;;;;5104438;28;19924;-68
2023/01/13 13:13:21;;;;;;;;;;;8.00;99.90;;;;;;5103973;28;19959;-68
2023/01/13 13:15:48;;;;;;;;;;;8.00;99.90;;;;;;5103735;28;20254;-68
2023/01/13 13:18:23;;;;;;;;;;;8.00;99.90;;;;;;5099850;28;20255;-68
2023/01/13 13:21:07;;;;;;;;;;;8.00;99.90;;;;;;5103383;28;19920;-68
2023/01/13 13:23:46;;;;;;;;;;;8.00;99.90;;;;;;5103758;28;19963;-68
2023/01/13 13:26:18;;;;;;;;;;;8.00;99.90;;;;;;5094038;28;19920;-68
2023/01/13 13:28:49;;;;;;;;;;;7.90;99.90;;;;;;5083375;28;20208;-68
2023/01/13 13:31:32;;;;;;;;;;;7.80;99.90;;;;;;5091313;28;20272;-68
2023/01/13 13:34:19;;;;;;;;;;;7.70;99.90;;;;;;5103932;28;19978;-68
2023/01/13 13:36:53;;;;;;;;;;;7.60;99.90;;;;;;5095771;28;19968;-68
2023/01/13 13:47:40;;;;;;;;;;;7.20;99.90;;;;;;5095889;28;20120;-68
2023/01/13 13:50:08;;;;;;;;;;;7.10;99.90;;;;;;5097150;28;19958;-68
2023/01/13 13:52:40;;;;;;;;;;;7.10;99.90;;;;;;5095310;28;19920;-68
2023/01/13 13:55:10;;;;;;;;;;;7.10;99.90;;;;;;5098114;28;19995;-68
2023/01/13 13:57:39;;;;;;;;;;;7.00;99.90;;;;;;5082526;28;19928;-68
2023/01/13 14:00:08;;;;;;;;;;;7.10;99.90;;;;;;5089195;28;19920;-69
2023/01/13 14:02:36;;;;;;;;;;;7.10;99.90;;;;;;5092655;28;19981;-68
2023/01/13 14:05:07;;;;;;;;;;;7.00;99.90;;;;;;5099598;28;20172;-68
2023/01/13 14:07:43;;;;;;;;;;;7.10;99.90;;;;;;5093803;28;19919;-68
2023/01/13 14:10:14;;;;;;;;;;;7.10;99.90;;;;;;5107750;28;19966;-68
2023/01/13 14:12:40;;;;;;;;;;;7.10;99.90;;;;;;5094257;28;20156;-68
2023/01/13 14:15:22;;;;;;;;;;;7.20;99.90;;;;;;5087035;28;19935;-68
2023/01/13 14:17:49;;;;;;;;;;;7.20;99.90;;;;;;5093660;28;19962;-71
2023/01/13 14:20:18;;;;;;;;;;;7.20;99.90;;;;;;5087153;28;19955;-67
2023/01/13 14:22:47;;;;;;;;;;;7.30;99.90;;;;;;5086125;28;19920;-67
2023/01/13 14:25:27;;;;;;;;;;;7.40;99.90;;;;;;5105632;28;19935;-67
2023/01/13 14:27:54;;;;;;;;;;;7.40;99.90;;;;;;5105905;28;20275;-67
2023/01/13 14:30:22;;;;;;;;;;;7.50;99.90;;;;;;5097948;28;19920;-67
2023/01/13 14:32:49;;;;;;;;;;;7.60;99.90;;;;;;5088185;28;20177;-67
2023/01/13 14:35:16;;;;;;;;;;;7.70;99.90;;;;;;5103775;28;19992;-67
2023/01/13 14:37:44;;;;;;;;;;;7.70;99.90;;;;;;5103409;28;19974;-66
2023/01/13 14:40:27;;;;;;;;;;;7.70;99.90;;;;;;5103851;28;20215;-67
2023/01/13 14:42:59;;;;;;;;;;;7.70;99.90;;;;;;5083547;28;19921;-67
2023/01/13 14:45:26;;;;;;;;;;;7.80;99.90;;;;;;5085598;28;19963;-67
2023/01/13 14:47:54;;;;;;;;;;;7.80;99.90;;;;;;5089138;28;20119;-67
2023/01/13 14:50:32;;;;;;;;;;;7.80;99.90;;;;;;5105085;28;19983;-67
2023/01/13 14:52:59;;;;;;;;;;;7.70;99.90;;;;;;5094758;28;19921;-67
2023/01/13 14:55:30;;;;;;;;;;;7.70;99.90;;;;;;5105893;28;19928;-67
2023/01/13 14:58:15;;;;;;;;;;;7.70;99.90;;;;;;5105672;28;19987;-68
2023/01/13 15:00:43;;;;;;;;;;;7.60;99.90;;;;;;5105888;28;20014;-67
2023/01/13 15:03:13;;;;;;;;;;;7.60;99.90;;;;;;5105286;28;19928;-66
2023/01/13 15:05:46;;;;;;;;;;;7.50;99.90;;;;;;5106012;28;19956;-65
2023/01/13 15:08:29;;;;;;;;;;;7.50;99.90;;;;;;5105870;28;19955;-66
2023/01/13 15:10:58;;;;;;;;;;;7.40;99.90;;;;;;5103920;28;20412;-66
2023/01/13 15:13:40;;;;;;;;;;;7.30;99.90;;;;;;5085176;28;19942;-66
2023/01/13 15:16:14;;;;;;;;;;;7.20;99.90;;;;;;5087204;28;20243;-65
2023/01/13 15:18:41;;;;;;;;;;;7.10;99.90;;;;;;5012904;28;19922;-66
2023/01/13 15:21:08;;;;;;;;;;;7.10;99.90;;;;;;5003046;28;19922;-66
2023/01/13 15:23:35;;;;;;;;;;;7.00;99.90;;;;;;5052941;28;19980;-66
2023/01/13 15:26:02;;;;;;;;;;;6.90;99.90;;;;;;5105243;28;19934;-66
2023/01/13 15:28:28;;;;;;;;;;;6.90;99.90;;;;;;5103634;28;19927;-66
2023/01/13 15:30:59;;;;;;;;;;;6.90;99.90;;;;;;5085705;28;19984;-66
2023/01/13 15:33:27;;;;;;;;;;;6.80;99.90;;;;;;5092648;28;19935;-66
2023/01/13 15:35:54;;;;;;;;;;;6.80;99.90;;;;;;5105659;28;20142;-66
2023/01/13 15:38:22;;;;;;;;;;;6.80;99.90;;;;;;5105317;28;20235;-66
2023/01/13 15:40:49;;;;;;;;;;;6.80;99.90;;;;;;5099986;28;19966;-66
2023/01/13 15:48:46;;;;;;;;;;;6.70;99.90;;;;;;5105528;28;19997;-66